createdAt,value
2023-01-13T00:01:14.051Z,4.47
2023-01-13T00:03:41.445Z,4.50
2023-01-13T00:06:12.468Z,4.57
2023-01-13T00:08:39.373Z,4.35
2023-01-13T00:11:06.380Z,4.30
2023-01-13T00:13:35.395Z,4.95
2023-01-13T00:16:07.460Z,4.00
2023-01-13T00:18:36.865Z,4.32
2023-01-13T00:21:23.442Z,5.47
2023-01-13T00:23:55.114Z,7.28
2023-01-13T00:26:27.304Z,6.75
2023-01-13T00:29:00.542Z,6.75
2023-01-13T00:31:29.357Z,6.47
2023-01-13T00:33:57.772Z,7.20
2023-01-13T00:36:24.597Z,7.68
2023-01-13T00:38:51.515Z,9.13
2023-01-13T00:41:20.495Z,8.02
2023-01-13T00:43:48.968Z,6.35
2023-01-13T00:46:20.231Z,6.32
2023-01-13T00:48:47.730Z,5.72
2023-01-13T00:51:17.088Z,6.47
2023-01-13T00:53:46.428Z,5.85
2023-01-13T00:56:16.857Z,6.30
2023-01-13T00:58:45.878Z,6.00
2023-01-13T01:01:18.677Z,6.30
2023-01-13T01:03:48.619Z,5.53
2023-01-13T01:06:21.184Z,5.60
2023-01-13T01:08:48.176Z,5.65
2023-01-13T01:11:21.070Z,5.45
2023-01-13T01:13:48.501Z,6.05
2023-01-13T01:16:17.373Z,5.72
2023-01-13T01:18:46.060Z,5.75
2023-01-13T01:21:13.638Z,5.53
2023-01-13T01:23:41.884Z,6.00
2023-01-13T01:26:20.650Z,5.72
2023-01-13T01:28:48.150Z,5.90
2023-01-13T01:31:26.950Z,5.63
2023-01-13T01:33:54.928Z,5.80
2023-01-13T01:36:23.539Z,5.90
2023-01-13T01:38:50.554Z,5.85
2023-01-13T01:41:24.327Z,5.95
2023-01-13T01:44:04.528Z,6.03
2023-01-13T01:46:40.021Z,6.40
2023-01-13T01:49:24.265Z,6.20
2023-01-13T01:52:19.127Z,6.57
2023-01-13T01:54:52.828Z,6.68
2023-01-13T01:57:26.529Z,7.05
2023-01-13T01:59:53.816Z,6.90
2023-01-13T02:02:20.778Z,7.13
2023-01-13T02:04:51.572Z,6.72
2023-01-13T02:07:25.234Z,6.22
2023-01-13T02:09:54.022Z,6.43
2023-01-13T02:12:30.430Z,6.25
2023-01-13T02:15:05.248Z,6.80
2023-01-13T02:17:57.121Z,6.32
2023-01-13T02:20:30.200Z,6.20
2023-01-13T02:23:37.033Z,6.65
2023-01-13T02:26:37.372Z,6.70
2023-01-13T02:29:40.970Z,6.65
2023-01-13T02:32:35.787Z,6.53
2023-01-13T02:35:26.366Z,6.88
2023-01-13T02:37:54.857Z,7.63
2023-01-13T02:40:25.518Z,6.78
2023-01-13T02:43:17.483Z,8.20
2023-01-13T02:46:03.291Z,7.82
2023-01-13T02:48:32.028Z,8.95
2023-01-13T02:51:20.884Z,8.38
2023-01-13T02:53:57.151Z,9.15
2023-01-13T02:56:26.540Z,9.60
2023-01-13T02:58:56.223Z,9.00
2023-01-13T03:01:24.106Z,9.32
2023-01-13T03:03:51.258Z,9.63
2023-01-13T03:07:00.647Z,9.73
2023-01-13T03:09:42.020Z,9.68
2023-01-13T03:12:38.949Z,10.70
2023-01-13T03:15:45.347Z,10.05
2023-01-13T03:18:57.181Z,10.10
2023-01-13T03:21:30.412Z,10.52
2023-01-13T03:24:06.099Z,8.85
2023-01-13T03:26:43.503Z,9.63
2023-01-13T03:29:19.499Z,10.10
2023-01-13T03:31:57.633Z,9.90
2023-01-13T03:34:31.270Z,10.13
2023-01-13T03:37:02.264Z,9.77
2023-01-13T03:39:34.426Z,9.73
2023-01-13T03:42:08.948Z,9.38
2023-01-13T03:44:48.767Z,9.30
2023-01-13T03:47:45.894Z,10.20
2023-01-13T03:50:20.756Z,9.45
2023-01-13T03:52:58.451Z,9.93
2023-01-13T03:55:51.792Z,10.70
2023-01-13T03:58:26.095Z,9.63
2023-01-13T04:01:25.527Z,11.00
2023-01-13T04:04:05.740Z,10.48
2023-01-13T04:06:52.612Z,10.05
2023-01-13T04:09:25.002Z,9.68
2023-01-13T04:12:17.792Z,9.38
2023-01-13T04:14:45.376Z,11.05
2023-01-13T04:17:12.696Z,10.48
2023-01-13T04:19:39.644Z,10.02
2023-01-13T04:22:06.556Z,10.10
2023-01-13T04:24:33.415Z,9.13
2023-01-13T04:27:00.264Z,9.85
2023-01-13T04:29:27.166Z,9.75
2023-01-13T04:31:54.259Z,9.23
2023-01-13T04:34:21.266Z,10.20
2023-01-13T04:36:48.163Z,9.98
2023-01-13T04:39:15.188Z,9.38
2023-01-13T04:42:01.338Z,9.95
2023-01-13T04:44:28.856Z,9.00
2023-01-13T04:46:55.716Z,9.50
2023-01-13T04:49:22.619Z,10.63
2023-01-13T04:51:49.478Z,9.70
2023-01-13T04:54:16.440Z,9.93
2023-01-13T04:56:43.600Z,9.82
2023-01-13T04:59:12.696Z,9.05
2023-01-13T05:01:40.091Z,9.07
2023-01-13T05:04:07.694Z,9.27
2023-01-13T05:06:34.535Z,9.93
2023-01-13T05:09:01.489Z,9.95
2023-01-13T05:11:47.051Z,9.10
2023-01-13T05:14:32.189Z,9.50
2023-01-13T05:17:01.866Z,10.02
2023-01-13T05:19:33.726Z,9.82
2023-01-13T05:22:20.105Z,9.80
2023-01-13T05:25:05.761Z,9.50
2023-01-13T05:27:33.745Z,9.80
2023-01-13T05:30:00.586Z,10.65
2023-01-13T05:32:30.246Z,10.00
2023-01-13T05:34:57.306Z,10.18
2023-01-13T05:37:25.928Z,9.13
2023-01-13T05:40:11.540Z,10.45
2023-01-13T05:42:57.165Z,9.60
2023-01-13T05:45:24.560Z,9.15
2023-01-13T05:47:51.569Z,9.75
2023-01-13T05:50:18.578Z,9.32
2023-01-13T05:52:45.483Z,8.73
2023-01-13T05:55:12.581Z,8.45
2023-01-13T05:57:39.447Z,7.90
2023-01-13T06:00:06.894Z,8.63
2023-01-13T06:02:34.071Z,9.10
2023-01-13T06:05:00.951Z,8.68
2023-01-13T06:07:27.885Z,8.73
2023-01-13T06:09:54.675Z,8.10
2023-01-13T06:12:21.495Z,9.00
2023-01-13T06:14:48.386Z,9.00
2023-01-13T06:17:16.496Z,7.82
2023-01-13T06:19:43.339Z,7.95
2023-01-13T06:22:19.582Z,8.02
2023-01-13T06:24:46.607Z,7.80
2023-01-13T06:27:13.600Z,7.65
2023-01-13T06:29:40.502Z,8.38
2023-01-13T06:32:14.787Z,7.60
2023-01-13T06:34:47.603Z,7.85
2023-01-13T06:37:16.518Z,7.95
2023-01-13T06:39:43.475Z,7.55
2023-01-13T06:42:28.823Z,7.45
2023-01-13T06:44:55.729Z,7.25
2023-01-13T06:47:22.689Z,7.97
2023-01-13T06:49:49.605Z,8.00
2023-01-13T06:52:16.511Z,7.40
2023-01-13T06:54:43.380Z,7.35
2023-01-13T06:57:10.238Z,7.68
2023-01-13T06:59:37.164Z,7.45
2023-01-13T07:02:04.223Z,7.35
2023-01-13T07:04:31.115Z,7.97
2023-01-13T07:06:58.000Z,7.75
2023-01-13T07:09:24.885Z,7.25
2023-01-13T07:11:52.976Z,7.00
2023-01-13T07:14:38.489Z,6.75
2023-01-13T07:17:05.592Z,7.00
2023-01-13T07:19:32.456Z,7.15
2023-01-13T07:21:59.365Z,7.15
2023-01-13T07:24:26.339Z,7.65
2023-01-13T07:26:53.288Z,7.05
2023-01-13T07:29:20.156Z,7.63
2023-01-13T07:31:49.972Z,7.30
2023-01-13T07:34:17.213Z,7.38
2023-01-13T07:36:44.040Z,7.22
2023-01-13T07:39:10.897Z,7.53
2023-01-13T07:41:56.456Z,7.93
2023-01-13T07:44:23.393Z,7.38
2023-01-13T07:46:50.312Z,8.02
2023-01-13T07:49:17.203Z,7.50
2023-01-13T07:51:44.131Z,8.23
2023-01-13T07:54:11.106Z,19.33
2023-01-13T07:56:37.946Z,21.45
2023-01-13T07:59:04.875Z,18.05
2023-01-13T08:01:32.211Z,11.80
2023-01-13T08:03:59.312Z,9.25
2023-01-13T08:06:27.001Z,8.88
2023-01-13T08:08:54.309Z,9.32
2023-01-13T08:11:23.503Z,9.20
2023-01-13T08:13:50.825Z,10.80
2023-01-13T08:16:18.057Z,13.27
2023-01-13T08:18:44.966Z,13.32
2023-01-13T08:21:14.125Z,12.05
2023-01-13T08:23:42.422Z,11.20
2023-01-13T08:26:11.636Z,10.60
2023-01-13T08:28:40.564Z,10.02
2023-01-13T08:31:16.540Z,9.07
2023-01-13T08:33:44.012Z,9.98
2023-01-13T08:36:12.445Z,8.77
2023-01-13T08:38:40.207Z,9.25
2023-01-13T08:41:12.052Z,8.82
2023-01-13T08:43:39.005Z,9.93
2023-01-13T08:46:06.108Z,10.55
2023-01-13T08:48:33.191Z,9.75
2023-01-13T08:51:06.392Z,8.90
2023-01-13T08:53:33.324Z,8.38
2023-01-13T08:56:00.387Z,9.50
2023-01-13T08:58:27.285Z,9.52
2023-01-13T09:00:54.242Z,9.10
2023-01-13T09:03:21.112Z,9.30
2023-01-13T09:05:47.918Z,9.05
2023-01-13T09:08:14.928Z,9.30
2023-01-13T09:10:41.858Z,8.77
2023-01-13T09:13:13.226Z,9.10
2023-01-13T09:15:45.549Z,9.05
2023-01-13T09:18:13.080Z,9.05
2023-01-13T09:20:40.135Z,9.02
2023-01-13T09:23:10.321Z,8.57
2023-01-13T09:25:39.047Z,8.55
2023-01-13T09:28:06.190Z,8.07
2023-01-13T09:30:33.080Z,8.38
2023-01-13T09:33:19.163Z,8.05
2023-01-13T09:35:46.159Z,8.80
2023-01-13T09:38:13.072Z,9.07
2023-01-13T09:40:43.946Z,8.48
2023-01-13T09:43:41.739Z,8.60
2023-01-13T09:46:38.489Z,8.68
2023-01-13T09:49:22.998Z,8.95
2023-01-13T09:52:02.546Z,8.63
2023-01-13T09:54:39.784Z,8.40
2023-01-13T09:57:15.150Z,8.63
2023-01-13T09:59:42.938Z,8.65
2023-01-13T10:02:27.265Z,9.27
2023-01-13T10:07:34.615Z,8.38
2023-01-13T10:10:03.622Z,9.15
2023-01-13T10:13:10.266Z,9.45
2023-01-13T10:15:37.282Z,9.05
2023-01-13T10:18:18.148Z,8.40
2023-01-13T10:21:42.058Z,9.75
2023-01-13T10:24:29.232Z,9.95
2023-01-13T10:27:10.459Z,10.23
2023-01-13T10:29:37.475Z,8.88
2023-01-13T10:32:05.018Z,10.00
2023-01-13T10:34:31.971Z,9.38
2023-01-13T10:37:10.827Z,10.18
2023-01-13T10:39:47.910Z,11.52
2023-01-13T10:42:17.765Z,12.18
2023-01-13T10:44:56.362Z,12.20
2023-01-13T10:47:29.976Z,12.95
2023-01-13T10:50:16.232Z,11.63
2023-01-13T10:53:15.849Z,11.13
2023-01-13T10:55:44.124Z,10.02
2023-01-13T10:58:19.079Z,9.85
2023-01-13T11:00:46.884Z,10.73
2023-01-13T11:03:21.691Z,10.05
2023-01-13T11:06:00.118Z,10.68
2023-01-13T11:08:32.093Z,10.55
2023-01-13T11:10:59.912Z,10.52
2023-01-13T11:13:57.411Z,11.10
2023-01-13T11:16:25.875Z,10.05
2023-01-13T11:19:11.819Z,10.35
2023-01-13T11:21:49.950Z,10.90
2023-01-13T11:24:27.754Z,11.45
2023-01-13T11:27:00.621Z,10.48
2023-01-13T11:29:52.031Z,10.95
2023-01-13T11:32:20.748Z,10.88
2023-01-13T11:34:53.961Z,10.57
2023-01-13T11:37:33.085Z,10.70
2023-01-13T11:40:19.069Z,9.82
2023-01-13T11:42:54.941Z,9.15
2023-01-13T11:45:32.120Z,9.25
2023-01-13T11:48:01.446Z,9.43
2023-01-13T11:50:36.964Z,8.55
2023-01-13T11:53:26.295Z,8.40
2023-01-13T11:56:05.080Z,8.23
2023-01-13T11:58:49.676Z,8.00
2023-01-13T12:01:28.067Z,7.90
2023-01-13T12:04:23.732Z,7.93
2023-01-13T12:07:12.920Z,8.48
2023-01-13T12:09:46.372Z,8.80
2023-01-13T12:12:39.587Z,8.43
2023-01-13T12:15:22.266Z,9.50
2023-01-13T12:18:27.064Z,9.02
2023-01-13T12:21:19.729Z,8.77
2023-01-13T12:23:52.563Z,8.13
2023-01-13T12:26:19.452Z,9.30
2023-01-13T12:29:05.007Z,8.60
2023-01-13T12:31:34.907Z,9.02
2023-01-13T12:34:31.263Z,9.38
2023-01-13T12:37:16.522Z,8.63
2023-01-13T12:40:12.144Z,9.00
2023-01-13T12:43:11.367Z,8.18
2023-01-13T12:45:38.291Z,8.63
2023-01-13T12:48:05.626Z,8.52
2023-01-13T12:50:32.408Z,8.52
2023-01-13T12:53:20.446Z,13.13
2023-01-13T12:55:52.283Z,23.63
2023-01-13T12:58:26.863Z,22.55
2023-01-13T13:01:06.890Z,17.67
2023-01-13T13:03:35.355Z,18.15
2023-01-13T13:06:18.736Z,16.48
2023-01-13T13:09:06.273Z,16.90
2023-01-13T13:11:57.780Z,14.48
2023-01-13T13:14:39.743Z,21.67
2023-01-13T13:17:28.488Z,20.65
2023-01-13T13:19:59.914Z,25.08
2023-01-13T13:22:26.705Z,28.75
2023-01-13T13:24:56.287Z,28.33
2023-01-13T13:27:33.756Z,23.15
2023-01-13T13:30:04.101Z,18.30
2023-01-13T13:32:54.990Z,16.70
2023-01-13T13:36:11.397Z,15.60
2023-01-13T13:39:11.821Z,14.07
2023-01-13T13:42:03.652Z,15.68
2023-01-13T13:44:55.199Z,14.93
2023-01-13T13:47:22.111Z,14.90
2023-01-13T13:49:53.951Z,14.80
2023-01-13T13:52:36.139Z,15.27
2023-01-13T13:55:14.358Z,16.23
2023-01-13T13:57:44.632Z,17.27
2023-01-13T14:00:28.067Z,16.33
2023-01-13T14:03:24.846Z,23.05
2023-01-13T14:06:02.786Z,33.40
2023-01-13T14:08:35.252Z,27.92
2023-01-13T14:11:02.340Z,21.42
2023-01-13T14:13:31.660Z,22.33
2023-01-13T14:16:07.492Z,20.40
2023-01-13T14:18:42.834Z,16.08
2023-01-13T14:21:29.922Z,16.23
2023-01-13T14:24:11.490Z,16.48
2023-01-13T14:26:38.504Z,18.08
2023-01-13T14:29:06.111Z,28.38
2023-01-13T14:31:33.561Z,25.45
2023-01-13T14:34:30.988Z,24.75
2023-01-13T14:36:51.345Z,23.77
2023-01-13T14:39:18.184Z,20.35
2023-01-13T14:41:48.335Z,17.63
2023-01-13T14:44:25.063Z,16.55
2023-01-13T14:46:55.111Z,16.25
2023-01-13T14:49:31.871Z,16.85
2023-01-13T14:52:16.463Z,15.05
2023-01-13T14:54:45.262Z,15.70
2023-01-13T14:57:27.436Z,16.38
2023-01-13T15:00:02.638Z,19.13
2023-01-13T15:02:29.510Z,21.75
2023-01-13T15:05:24.260Z,20.77
2023-01-13T15:08:12.646Z,20.15
2023-01-13T15:11:02.219Z,18.95
2023-01-13T15:13:53.157Z,17.30
2023-01-13T15:16:28.699Z,16.73
2023-01-13T15:18:56.543Z,16.77
2023-01-13T15:21:23.953Z,15.68
2023-01-13T15:23:51.166Z,17.13
2023-01-13T15:26:27.046Z,17.52
2023-01-13T15:28:55.911Z,17.25
2023-01-13T15:31:23.744Z,15.50
2023-01-13T15:33:51.028Z,16.23
2023-01-13T15:36:21.725Z,15.25
2023-01-13T15:38:49.012Z,16.58
2023-01-13T15:41:15.916Z,17.60
2023-01-13T15:44:01.114Z,17.40
2023-01-13T15:46:40.125Z,17.15
2023-01-13T15:49:36.929Z,18.13
2023-01-13T15:52:22.475Z,17.98
2023-01-13T15:54:50.437Z,17.55
2023-01-13T15:57:30.433Z,19.20
2023-01-13T16:00:00.752Z,20.23
2023-01-13T16:02:29.408Z,22.92
2023-01-13T16:04:56.434Z,24.65
2023-01-13T16:07:25.174Z,24.85
2023-01-13T16:09:52.930Z,25.67
2023-01-13T16:12:19.893Z,33.38
2023-01-13T16:14:46.810Z,32.80
2023-01-13T16:17:23.194Z,33.90
2023-01-13T16:19:50.553Z,29.70
2023-01-13T16:22:18.327Z,30.05
2023-01-13T16:24:45.213Z,27.83
2023-01-13T16:27:22.394Z,26.23
2023-01-13T16:29:50.757Z,27.50
2023-01-13T16:32:19.744Z,34.70
2023-01-13T16:34:47.119Z,50.35
2023-01-13T16:37:25.689Z,54.97
2023-01-13T16:39:53.854Z,51.45
2023-01-13T16:42:21.329Z,39.85
2023-01-13T16:44:48.553Z,31.73
2023-01-13T16:47:17.701Z,32.90
2023-01-13T16:49:45.581Z,28.42
2023-01-13T16:52:12.607Z,24.75
2023-01-13T16:54:39.560Z,25.83
2023-01-13T16:57:07.858Z,26.77
2023-01-13T16:59:34.758Z,24.95
2023-01-13T17:02:02.274Z,23.08
2023-01-13T17:04:29.199Z,25.02
2023-01-13T17:07:06.228Z,49.08
2023-01-13T17:09:33.062Z,59.90
2023-01-13T17:12:00.173Z,41.05
2023-01-13T17:14:27.046Z,30.80
2023-01-13T17:16:57.223Z,26.17
2023-01-13T17:19:24.617Z,23.02
2023-01-13T17:21:51.589Z,21.77
2023-01-13T17:24:18.841Z,23.55
2023-01-13T17:26:49.271Z,23.30
2023-01-13T17:29:25.213Z,22.48
2023-01-13T17:31:52.700Z,23.80
2023-01-13T17:34:21.304Z,22.33
2023-01-13T17:36:48.770Z,20.80
2023-01-13T17:39:24.666Z,21.42
2023-01-13T17:41:53.448Z,21.98
2023-01-13T17:44:22.510Z,21.70
2023-01-13T17:46:49.453Z,22.15
2023-01-13T17:49:21.906Z,23.33
2023-01-13T17:51:51.113Z,22.70
2023-01-13T17:54:18.743Z,22.90
2023-01-13T17:56:45.751Z,23.25
2023-01-13T17:59:13.958Z,23.13
2023-01-13T18:01:41.328Z,21.45
2023-01-13T18:04:31.672Z,21.27
2023-01-13T18:06:58.673Z,22.05
2023-01-13T18:09:26.414Z,20.63
2023-01-13T18:11:53.318Z,22.77
2023-01-13T18:14:22.572Z,23.67
2023-01-13T18:16:49.581Z,24.92
2023-01-13T18:19:34.996Z,24.65
2023-01-13T18:22:20.482Z,23.92
2023-01-13T18:25:06.059Z,22.13
2023-01-13T18:27:35.919Z,20.23
2023-01-13T18:30:04.276Z,21.85
2023-01-13T18:32:33.571Z,19.83
2023-01-13T18:35:07.293Z,18.70
2023-01-13T18:37:38.827Z,19.67
2023-01-13T18:40:07.918Z,17.15
2023-01-13T18:42:54.978Z,15.95
2023-01-13T18:45:32.326Z,16.05
2023-01-13T18:48:01.314Z,16.17
2023-01-13T18:50:29.001Z,15.05
2023-01-13T18:52:56.212Z,15.52
2023-01-13T18:55:23.367Z,15.38
2023-01-13T18:57:51.051Z,14.75
2023-01-13T19:00:20.379Z,15.05
2023-01-13T19:02:47.702Z,14.98
2023-01-13T19:05:15.035Z,15.75
2023-01-13T19:07:46.385Z,15.60
2023-01-13T19:10:13.425Z,15.75
2023-01-13T19:12:40.386Z,16.80
2023-01-13T19:15:07.936Z,16.42
2023-01-13T19:17:35.816Z,16.10
2023-01-13T19:20:04.755Z,16.50
2023-01-13T19:22:33.986Z,17.13
2023-01-13T19:25:02.169Z,15.70
2023-01-13T19:27:29.418Z,15.48
2023-01-13T19:30:00.533Z,16.33
2023-01-13T19:32:28.153Z,14.68
2023-01-13T19:34:59.177Z,15.13
2023-01-13T19:37:34.327Z,15.55
2023-01-13T19:40:01.375Z,16.00
2023-01-13T19:42:47.031Z,14.88
2023-01-13T19:45:33.889Z,15.25
2023-01-13T19:48:05.927Z,15.05
2023-01-13T19:50:37.631Z,14.90
2023-01-13T19:53:04.917Z,14.93
2023-01-13T19:55:32.191Z,15.60
2023-01-13T19:57:59.323Z,14.73
2023-01-13T20:00:26.253Z,15.77
2023-01-13T20:02:53.519Z,14.65
2023-01-13T20:05:24.328Z,15.25
2023-01-13T20:07:52.111Z,14.35
2023-01-13T20:10:20.745Z,14.77
2023-01-13T20:12:47.823Z,14.32
2023-01-13T20:15:14.731Z,14.40
2023-01-13T20:17:41.805Z,15.32
2023-01-13T20:20:09.974Z,15.43
2023-01-13T20:22:38.081Z,14.60
2023-01-13T20:25:05.436Z,15.50
2023-01-13T20:27:32.457Z,14.63
2023-01-13T20:29:59.437Z,14.00
2023-01-13T20:32:26.342Z,15.52
2023-01-13T20:34:53.316Z,13.95
2023-01-13T20:37:20.174Z,14.43
2023-01-13T20:39:48.056Z,13.77
2023-01-13T20:42:29.948Z,14.68
2023-01-13T20:44:58.304Z,15.40
2023-01-13T20:47:25.988Z,15.45
2023-01-13T20:49:53.455Z,14.50
2023-01-13T20:52:20.865Z,15.27
2023-01-13T20:54:47.862Z,15.13
2023-01-13T20:57:14.706Z,14.15
2023-01-13T20:59:42.302Z,14.70
2023-01-13T21:02:13.319Z,15.80
2023-01-13T21:04:40.892Z,14.75
2023-01-13T21:07:08.275Z,14.35
2023-01-13T21:09:35.249Z,14.27
2023-01-13T21:12:20.721Z,14.18
2023-01-13T21:15:06.054Z,13.88
2023-01-13T21:17:51.389Z,14.43
2023-01-13T21:20:18.464Z,13.90
2023-01-13T21:22:49.374Z,14.40
2023-01-13T21:25:18.551Z,15.10
2023-01-13T21:27:45.361Z,16.17
2023-01-13T21:30:17.037Z,15.85
2023-01-13T21:32:45.196Z,16.65
2023-01-13T21:35:13.469Z,15.93
2023-01-13T21:37:42.050Z,15.40
2023-01-13T21:40:11.035Z,14.98
2023-01-13T21:42:56.251Z,16.35
2023-01-13T21:45:42.208Z,16.17
2023-01-13T21:48:09.322Z,15.82
2023-01-13T21:50:38.460Z,15.75
2023-01-13T21:53:08.088Z,15.23
2023-01-13T21:55:36.855Z,15.30
2023-01-13T21:58:13.082Z,16.17
2023-01-13T22:00:42.204Z,15.25
2023-01-13T22:03:10.745Z,15.65
2023-01-13T22:05:38.241Z,15.52
2023-01-13T22:08:05.558Z,15.73
2023-01-13T22:10:32.620Z,15.43
2023-01-13T22:13:21.475Z,14.98
2023-01-13T22:15:48.799Z,15.52
2023-01-13T22:18:18.051Z,15.70
2023-01-13T22:20:45.208Z,15.20
2023-01-13T22:23:12.156Z,15.95
2023-01-13T22:25:39.084Z,16.10
2023-01-13T22:28:06.211Z,15.18
2023-01-13T22:30:33.391Z,15.23
2023-01-13T22:33:00.630Z,14.90
2023-01-13T22:35:27.637Z,14.18
2023-01-13T22:37:54.505Z,14.23
2023-01-13T22:40:21.350Z,13.60
2023-01-13T22:42:48.280Z,15.05
2023-01-13T22:45:15.110Z,15.77
2023-01-13T22:47:42.002Z,14.85
2023-01-13T22:50:09.932Z,15.35
2023-01-13T22:52:36.816Z,14.75
2023-01-13T22:55:04.389Z,13.98
2023-01-13T22:57:36.298Z,14.73
2023-01-13T23:00:06.558Z,13.98
2023-01-13T23:02:34.643Z,14.48
2023-01-13T23:05:01.890Z,14.18
2023-01-13T23:07:29.133Z,14.65
2023-01-13T23:09:56.033Z,15.00
2023-01-13T23:12:22.854Z,14.48
2023-01-13T23:14:49.674Z,14.75
2023-01-13T23:17:16.623Z,13.85
2023-01-13T23:19:43.448Z,14.38
2023-01-13T23:22:10.272Z,14.35
2023-01-13T23:24:37.140Z,13.43
2023-01-13T23:27:04.133Z,13.98
2023-01-13T23:29:31.073Z,13.88
2023-01-13T23:31:57.970Z,13.02
2023-01-13T23:34:24.895Z,13.05
2023-01-13T23:36:51.744Z,13.75
2023-01-13T23:39:18.584Z,14.98
2023-01-13T23:41:45.421Z,14.63
2023-01-13T23:44:12.247Z,15.38
2023-01-13T23:46:39.429Z,14.32
2023-01-13T23:49:06.360Z,15.05
2023-01-13T23:51:33.322Z,14.25
2023-01-13T23:54:00.528Z,14.77
2023-01-13T23:56:31.257Z,13.43
2023-01-13T23:58:58.722Z,15.73
